Time;durP1;ratioP1;P1;durP2;ratioP2;P2;SDS_P1;SDS_P2;PMS_P1;PMS_P2;Temp;Humidity;BMP_temperature;BMP_pressure;BME280_temperature;BME280_humidity;BME280_pressure;Samples;Min_cycle;Max_cycle;Signal;HPM_P1;HPM_P2
2022/01/06 00:00:35;;;;;;;15.07;1.83;;;4.30;99.90;;;;;;4988688;28;20049;-29
2022/01/06 00:03:01;;;;;;;8.30;1.73;;;4.30;99.90;;;;;;4987318;28;20057;-29
2022/01/06 00:05:27;;;;;;;12.70;2.37;;;4.30;99.90;;;;;;4956383;28;20043;-30
2022/01/06 00:07:53;;;;;;;12.20;2.07;;;4.30;99.90;;;;;;4963923;28;20064;-29
2022/01/06 00:10:19;;;;;;;17.57;2.80;;;4.30;99.90;;;;;;4967458;28;20047;-29
2022/01/06 00:13:24;;;;;;;18.20;3.00;;;4.20;99.90;;;;;;4950717;28;20046;-29
2022/01/06 00:15:54;;;;;;;15.37;2.50;;;4.20;99.90;;;;;;4965950;28;20129;-30
2022/01/06 00:18:40;;;;;;;21.93;3.60;;;4.20;99.90;;;;;;4950785;28;20066;-30
2022/01/06 00:23:50;;;;;;;20.00;3.43;;;4.20;99.90;;;;;;4979378;28;20069;-30
2022/01/06 00:26:16;;;;;;;22.43;3.70;;;4.20;99.90;;;;;;4977656;28;20502;-30
2022/01/06 00:28:41;;;;;;;22.30;3.63;;;4.20;99.90;;;;;;4982550;28;20038;-29
2022/01/06 00:31:07;;;;;;;16.93;3.57;;;4.20;99.90;;;;;;4988331;28;20494;-29
2022/01/06 00:33:34;;;;;;;24.70;3.63;;;4.20;99.90;;;;;;4987371;28;20132;-30
2022/01/06 00:36:00;;;;;;;16.47;3.20;;;4.20;99.90;;;;;;4970594;28;20081;-29
2022/01/06 00:38:26;;;;;;;23.63;3.97;;;4.20;99.90;;;;;;4972425;28;20125;-30
2022/01/06 00:40:53;;;;;;;25.03;4.03;;;4.10;99.90;;;;;;4970477;28;20054;-29
2022/01/06 00:43:19;;;;;;;28.97;4.77;;;4.20;99.90;;;;;;4987207;28;20107;-30
2022/01/06 00:45:44;;;;;;;24.13;4.37;;;4.20;99.90;;;;;;4987880;28;20054;-29
2022/01/06 00:48:10;;;;;;;26.63;4.63;;;4.20;99.90;;;;;;4959409;28;20058;-30
2022/01/06 00:50:38;;;;;;;23.97;4.03;;;4.20;99.90;;;;;;4984127;28;20310;-30
2022/01/06 00:53:04;;;;;;;26.50;4.37;;;4.20;99.90;;;;;;4969981;28;20046;-29
2022/01/06 00:55:34;;;;;;;28.73;4.27;;;4.20;99.90;;;;;;4972888;28;20058;-30
2022/01/06 00:58:01;;;;;;;20.70;3.60;;;4.20;99.90;;;;;;4975039;28;20046;-29
2022/01/06 01:00:37;;;;;;;24.87;4.37;;;4.20;99.90;;;;;;4991730;28;20285;-30
2022/01/06 01:03:04;;;;;;;17.43;3.50;;;4.20;99.90;;;;;;4990284;28;20065;-29
2022/01/06 01:05:30;;;;;;;22.93;3.20;;;4.20;99.90;;;;;;4976262;28;20518;-30
2022/01/06 01:07:56;;;;;;;23.60;3.77;;;4.20;99.90;;;;;;4949900;28;20141;-29
2022/01/06 01:10:22;;;;;;;20.70;3.50;;;4.20;99.90;;;;;;4973824;28;20104;-30
2022/01/06 01:12:48;;;;;;;24.37;3.70;;;4.20;99.90;;;;;;4990285;28;20129;-29
2022/01/06 01:15:22;;;;;;;19.47;3.53;;;4.20;99.90;;;;;;4991302;28;20161;-30
2022/01/06 01:17:49;;;;;;;23.83;3.90;;;4.10;99.90;;;;;;4975030;28;20046;-29
2022/01/06 01:20:17;;;;;;;18.63;3.67;;;4.10;99.90;;;;;;4989978;28;20038;-30
2022/01/06 01:22:43;;;;;;;25.87;4.03;;;4.20;99.90;;;;;;4990319;28;20137;-30
2022/01/06 01:25:09;;;;;;;22.93;3.57;;;4.10;99.90;;;;;;4990571;28;20046;-29
2022/01/06 01:27:39;;;;;;;20.00;3.70;;;4.10;99.90;;;;;;4974692;28;20486;-30
2022/01/06 01:30:10;;;;;;;19.50;3.73;;;4.10;99.90;;;;;;4989556;28;20082;-29
2022/01/06 01:32:37;;;;;;;;;;;4.10;99.90;;;;;;4973105;28;20050;-29
2022/01/06 01:35:07;;;;;;;22.77;3.30;;;4.10;99.90;;;;;;4990925;28;19926;-29
2022/01/06 01:37:32;;;;;;;24.23;3.87;;;4.00;99.90;;;;;;4975245;28;20046;-30
2022/01/06 01:39:59;;;;;;;20.00;3.63;;;4.10;99.90;;;;;;4990984;28;20093;-29
2022/01/06 01:42:25;;;;;;;24.93;4.23;;;4.00;99.90;;;;;;4990003;28;20441;-30
2022/01/06 01:44:52;;;;;;;18.53;3.23;;;3.90;99.90;;;;;;4990971;28;20057;-29
2022/01/06 01:47:30;;;;;;;20.23;3.80;;;3.90;99.90;;;;;;4974422;28;20109;-30
2022/01/06 01:50:12;;;;;;;25.63;3.97;;;4.00;99.90;;;;;;4956243;28;20050;-29
2022/01/06 01:52:41;;;;;;;25.50;3.47;;;3.90;99.90;;;;;;4972043;28;20120;-30
2022/01/06 01:55:08;;;;;;;30.07;4.37;;;3.90;99.90;;;;;;4990609;28;20541;-30
2022/01/06 01:57:34;;;;;;;24.30;3.80;;;3.80;99.90;;;;;;4974305;28;20050;-29
2022/01/06 02:00:02;;;;;;;24.67;3.70;;;3.80;99.90;;;;;;4990501;28;20490;-29
2022/01/06 02:02:28;;;;;;;18.90;3.73;;;3.80;99.90;;;;;;4989227;28;20453;-30
2022/01/06 02:04:54;;;;;;;23.30;4.07;;;3.80;99.90;;;;;;4979874;28;20051;-29
2022/01/06 02:07:19;;;;;;;25.20;3.83;;;3.80;99.90;;;;;;4961001;28;20034;-29
2022/01/06 02:09:45;;;;;;;25.63;4.27;;;3.80;99.90;;;;;;4990085;28;20441;-29
2022/01/06 02:12:33;;;;;;;21.53;4.37;;;3.70;99.90;;;;;;4989339;28;20169;-29
2022/01/06 02:14:58;;;;;;;22.30;4.00;;;3.70;99.90;;;;;;4990421;28;20065;-29
2022/01/06 02:17:24;;;;;;;20.93;3.80;;;3.70;99.90;;;;;;4973232;28;20073;-30
2022/01/06 02:19:56;;;;;;;18.73;4.00;;;3.70;99.90;;;;;;4972885;28;20138;-29
2022/01/06 02:22:21;;;;;;;21.33;4.00;;;3.70;99.90;;;;;;4971599;28;20053;-29
2022/01/06 02:24:48;;;;;;;23.03;3.53;;;3.70;99.90;;;;;;4990043;28;20521;-30
2022/01/06 02:27:14;;;;;;;23.67;3.50;;;3.70;99.90;;;;;;4973665;28;20042;-29
2022/01/06 02:29:40;;;;;;;22.37;2.90;;;3.70;99.90;;;;;;4989307;28;20034;-29
2022/01/06 02:32:15;;;;;;;18.47;3.17;;;3.70;99.90;;;;;;4989096;28;20053;-29
2022/01/06 02:34:41;;;;;;;16.43;2.93;;;3.70;99.90;;;;;;4973076;28;20112;-29
2022/01/06 02:37:07;;;;;;;24.43;3.40;;;3.60;99.90;;;;;;4974429;28;20046;-30
2022/01/06 02:39:33;;;;;;;17.90;3.63;;;3.60;99.90;;;;;;4989377;28;20046;-29
2022/01/06 02:41:58;;;;;;;17.80;3.23;;;3.60;99.90;;;;;;4989382;28;20085;-29
2022/01/06 02:44:25;;;;;;;19.67;3.57;;;3.60;99.90;;;;;;4988771;28;20054;-29
2022/01/06 02:46:52;;;;;;;17.30;3.33;;;3.60;99.90;;;;;;4973856;28;20139;-29
2022/01/06 02:49:19;;;;;;;21.20;3.50;;;3.60;99.90;;;;;;4988257;28;20054;-29
2022/01/06 02:51:45;;;;;;;19.97;3.40;;;3.60;99.90;;;;;;4971748;28;20105;-29
2022/01/06 02:54:11;;;;;;;17.97;3.57;;;3.50;99.90;;;;;;4970935;28;20058;-29
2022/01/06 02:56:38;;;;;;;19.67;3.43;;;3.50;99.90;;;;;;4975472;28;20057;-29
2022/01/06 02:59:04;;;;;;;26.70;3.80;;;3.50;99.90;;;;;;4986477;28;20128;-30
2022/01/06 03:01:30;;;;;;;20.33;3.97;;;3.50;99.90;;;;;;4989230;28;20129;-30
2022/01/06 03:03:56;;;;;;;18.30;3.10;;;3.50;99.90;;;;;;4987919;28;20506;-29
2022/01/06 03:06:21;;;;;;;17.23;3.83;;;3.40;99.90;;;;;;4977168;28;20046;-30
2022/01/06 03:08:47;;;;;;;23.20;3.87;;;3.40;99.90;;;;;;4981130;28;20047;-29
2022/01/06 03:11:13;;;;;;;19.93;3.77;;;3.40;99.90;;;;;;4988620;28;20042;-29
2022/01/06 03:13:38;;;;;;;22.90;3.93;;;3.30;99.90;;;;;;4986682;28;20050;-29
2022/01/06 03:16:05;;;;;;;25.70;4.00;;;3.30;99.90;;;;;;4971408;28;20107;-30
2022/01/06 03:18:30;;;;;;;20.47;3.53;;;3.30;99.90;;;;;;4972929;28;20461;-29
2022/01/06 03:20:56;;;;;;;25.83;4.03;;;3.20;99.90;;;;;;4987616;28;20092;-30
2022/01/06 03:23:22;;;;;;;23.63;3.23;;;3.20;99.90;;;;;;4963521;28;20553;-29
2022/01/06 03:25:47;;;;;;;22.27;3.67;;;3.20;99.90;;;;;;4969687;28;20073;-29
2022/01/06 03:28:13;;;;;;;20.63;3.67;;;3.20;99.90;;;;;;4953070;28;20401;-29
2022/01/06 03:30:39;;;;;;;19.00;3.30;;;3.20;99.90;;;;;;4980499;28;20053;-29
2022/01/06 03:33:04;;;;;;;24.47;4.03;;;3.10;99.90;;;;;;4954158;28;20042;-30
2022/01/06 03:35:30;;;;;;;19.77;3.83;;;3.10;99.90;;;;;;4989075;28;20507;-29
2022/01/06 03:37:56;;;;;;;16.97;3.13;;;3.10;99.90;;;;;;4972854;28;20058;-30
2022/01/06 03:40:22;;;;;;;20.43;3.63;;;3.10;99.90;;;;;;4988898;28;20058;-30
2022/01/06 03:42:49;;;;;;;22.33;3.50;;;3.10;99.90;;;;;;4969973;28;20049;-30
2022/01/06 03:45:17;;;;;;;23.40;3.93;;;3.00;99.90;;;;;;4988687;28;20197;-29
2022/01/06 03:47:43;;;;;;;21.00;3.70;;;3.00;99.90;;;;;;4972661;28;20046;-30
2022/01/06 03:50:11;;;;;;;21.00;3.80;;;3.00;99.90;;;;;;4988297;28;20405;-29
2022/01/06 03:52:37;;;;;;;21.80;3.83;;;3.00;99.90;;;;;;4987782;28;20097;-30
2022/01/06 03:55:05;;;;;;;23.13;3.93;;;3.00;99.90;;;;;;4988810;28;20128;-29
2022/01/06 03:57:31;;;;;;;22.27;3.63;;;2.90;99.90;;;;;;4954941;28;20473;-29
2022/01/06 03:59:56;;;;;;;21.47;3.47;;;2.90;99.90;;;;;;4988180;28;20130;-30
2022/01/06 04:02:22;;;;;;;21.73;3.97;;;2.90;99.90;;;;;;4978222;28;20086;-29
2022/01/06 04:04:48;;;;;;;23.27;3.57;;;2.80;99.90;;;;;;4978202;28;20050;-29
2022/01/06 04:07:13;;;;;;;26.03;4.43;;;2.80;99.90;;;;;;4972265;28;20084;-29
2022/01/06 04:09:39;;;;;;;24.87;3.80;;;2.80;99.90;;;;;;4988400;28;20077;-29
2022/01/06 04:12:09;;;;;;;17.00;3.87;;;2.80;99.90;;;;;;4969603;28;20527;-30
2022/01/06 04:14:35;;;;;;;30.50;4.00;;;2.70;99.90;;;;;;4971732;28;20465;-29
2022/01/06 04:17:01;;;;;;;20.77;3.57;;;2.70;99.90;;;;;;4973105;28;20185;-29
2022/01/06 04:19:27;;;;;;;22.57;3.90;;;2.70;99.90;;;;;;4969539;28;20104;-29
2022/01/06 04:21:53;;;;;;;24.60;3.80;;;2.70;99.90;;;;;;4988557;28;20121;-29
2022/01/06 04:24:20;;;;;;;28.07;3.93;;;2.60;99.90;;;;;;4987246;28;20038;-29
2022/01/06 04:26:45;;;;;;;28.23;4.33;;;2.60;99.90;;;;;;4972838;28;20049;-29
2022/01/06 04:29:11;;;;;;;30.30;4.17;;;2.60;99.90;;;;;;4987126;28;20050;-29
2022/01/06 04:31:38;;;;;;;27.70;4.50;;;2.60;99.90;;;;;;4991930;28;20053;-29
2022/01/06 04:34:04;;;;;;;25.30;3.90;;;2.60;99.90;;;;;;4990966;28;20108;-29
2022/01/06 04:36:29;;;;;;;26.57;5.10;;;2.50;99.90;;;;;;4979671;28;20996;-29
2022/01/06 04:38:55;;;;;;;21.67;3.53;;;2.50;99.90;;;;;;4971409;28;20096;-29
2022/01/06 04:41:20;;;;;;;30.50;4.43;;;2.50;99.90;;;;;;4974354;28;20058;-29
2022/01/06 04:43:46;;;;;;;20.00;3.63;;;2.50;99.90;;;;;;4973132;28;20046;-30
2022/01/06 04:46:12;;;;;;;27.27;4.43;;;2.40;99.90;;;;;;4966225;28;20050;-30
2022/01/06 04:48:38;;;;;;;18.90;4.43;;;2.40;99.90;;;;;;4984289;28;20050;-29
2022/01/06 04:51:04;;;;;;;21.13;4.03;;;2.40;99.90;;;;;;4991350;28;20137;-30
2022/01/06 04:53:30;;;;;;;29.37;4.43;;;2.40;99.90;;;;;;4990981;28;20042;-29
2022/01/06 04:55:58;;;;;;;28.47;5.70;;;2.40;99.90;;;;;;4991586;28;20120;-29
2022/01/06 04:58:23;;;;;;;26.47;5.30;;;2.30;99.90;;;;;;4975369;28;20101;-30
2022/01/06 05:00:49;;;;;;;26.23;4.87;;;2.30;99.90;;;;;;4991409;28;20046;-29
2022/01/06 05:03:15;;;;;;;25.60;4.67;;;2.20;99.90;;;;;;4990707;28;20422;-29
2022/01/06 05:05:40;;;;;;;24.73;5.07;;;2.20;99.90;;;;;;4957541;28;20051;-29
2022/01/06 05:08:06;;;;;;;26.00;4.83;;;2.10;99.90;;;;;;4951430;28;20478;-29
2022/01/06 05:10:32;;;;;;;28.60;5.40;;;2.10;99.90;;;;;;4982276;28;20682;-29
2022/01/06 05:12:58;;;;;;;23.73;4.63;;;2.10;99.90;;;;;;4990348;28;20046;-29
2022/01/06 05:15:23;;;;;;;24.13;4.20;;;2.00;99.90;;;;;;4991603;28;20382;-29
2022/01/06 05:17:49;;;;;;;26.63;4.33;;;2.00;99.90;;;;;;4975001;28;20054;-29
2022/01/06 05:20:14;;;;;;;18.83;3.87;;;2.00;99.90;;;;;;4991141;28;20139;-29
2022/01/06 05:22:45;;;;;;;24.37;4.10;;;1.90;99.90;;;;;;4988763;28;20054;-29
2022/01/06 05:25:12;;;;;;;24.10;3.60;;;1.90;99.90;;;;;;4991050;28;20061;-29
2022/01/06 05:27:38;;;;;;;22.97;4.10;;;1.80;99.90;;;;;;4975096;28;20107;-29
2022/01/06 05:30:06;;;;;;;20.23;4.07;;;1.80;99.90;;;;;;4973409;28;20042;-29
2022/01/06 05:32:31;;;;;;;17.47;3.30;;;1.80;99.90;;;;;;4989888;28;20042;-29
2022/01/06 05:34:57;;;;;;;17.77;3.30;;;1.80;99.90;;;;;;4990904;28;20054;-29
2022/01/06 05:37:23;;;;;;;28.73;4.27;;;1.70;99.90;;;;;;4975113;28;20050;-30
2022/01/06 05:39:48;;;;;;;23.27;3.27;;;1.70;99.90;;;;;;4975734;28;20042;-29
2022/01/06 05:42:14;;;;;;;20.43;3.30;;;1.70;99.90;;;;;;4969563;28;20047;-29
2022/01/06 05:44:41;;;;;;;19.37;3.93;;;1.70;99.90;;;;;;4975818;28;20038;-29
2022/01/06 05:47:07;;;;;;;18.67;4.03;;;1.60;99.90;;;;;;4974055;28;20058;-30
2022/01/06 05:49:34;;;;;;;21.37;3.53;;;1.60;99.90;;;;;;4989849;28;20434;-29
2022/01/06 05:52:00;;;;;;;23.90;3.90;;;1.50;99.90;;;;;;4990428;28;20054;-29
2022/01/06 05:54:26;;;;;;;22.33;3.70;;;1.50;99.90;;;;;;4989584;28;20502;-29
2022/01/06 05:56:52;;;;;;;19.00;3.80;;;1.50;99.90;;;;;;4957558;28;20650;-29
2022/01/06 05:59:17;;;;;;;21.67;3.63;;;1.50;99.90;;;;;;4989081;28;20050;-29
2022/01/06 06:01:45;;;;;;;24.10;3.97;;;1.50;99.90;;;;;;4990589;28;20594;-29
2022/01/06 06:04:12;;;;;;;20.03;3.43;;;1.50;99.90;;;;;;4967294;28;20054;-29
2022/01/06 06:06:37;;;;;;;23.80;3.47;;;1.50;99.90;;;;;;4940953;28;20170;-29
2022/01/06 06:09:03;;;;;;;24.70;4.00;;;1.50;99.90;;;;;;4971375;28;20129;-29
2022/01/06 06:11:29;;;;;;;23.07;3.80;;;1.50;99.90;;;;;;4971084;28;20058;-29
2022/01/06 06:13:54;;;;;;;26.67;3.50;;;1.40;99.90;;;;;;4969947;28;20050;-29
2022/01/06 06:16:20;;;;;;;23.10;3.60;;;1.50;99.90;;;;;;4959765;28;20050;-29
2022/01/06 06:18:46;;;;;;;21.87;3.77;;;1.40;99.90;;;;;;4983234;28;20056;-29
2022/01/06 06:21:11;;;;;;;21.13;3.33;;;1.40;99.90;;;;;;4989897;28;20105;-29
2022/01/06 06:23:37;;;;;;;24.83;3.70;;;1.40;99.90;;;;;;4989362;28;20085;-29
2022/01/06 06:26:03;;;;;;;23.97;3.90;;;1.40;99.90;;;;;;4990182;28;20425;-29
2022/01/06 06:28:28;;;;;;;21.17;3.77;;;1.40;99.90;;;;;;4973652;28;20046;-29
2022/01/06 06:30:54;;;;;;;21.30;3.60;;;1.40;99.90;;;;;;4989527;28;20042;-29
2022/01/06 06:33:20;;;;;;;22.23;3.63;;;1.30;99.90;;;;;;4988934;28;20056;-29
2022/01/06 06:35:46;;;;;;;24.40;3.80;;;1.40;99.90;;;;;;4972267;28;20426;-29
2022/01/06 06:38:11;;;;;;;20.40;4.20;;;1.30;99.90;;;;;;4974170;28;20121;-29
2022/01/06 06:40:37;;;;;;;29.63;4.27;;;1.30;99.90;;;;;;4989546;28;20061;-29
2022/01/06 06:43:03;;;;;;;27.80;3.60;;;1.30;99.90;;;;;;4989022;28;20050;-29
2022/01/06 06:45:28;;;;;;;24.30;4.20;;;1.30;99.90;;;;;;4971639;28;20498;-29
2022/01/06 06:47:54;;;;;;;22.03;4.37;;;1.30;99.90;;;;;;4973155;28;20125;-29
2022/01/06 06:50:21;;;;;;;22.53;4.10;;;1.30;99.90;;;;;;4988823;28;20089;-29
2022/01/06 06:52:47;;;;;;;32.90;4.87;;;1.30;99.90;;;;;;4988256;28;20054;-29
2022/01/06 06:55:14;;;;;;;22.03;4.03;;;1.30;99.90;;;;;;4989033;28;20486;-29
2022/01/06 06:57:40;;;;;;;24.47;3.93;;;1.30;99.90;;;;;;4973153;28;20053;-29
2022/01/06 07:00:08;;;;;;;29.00;4.20;;;1.30;99.90;;;;;;4989428;28;20526;-29
2022/01/06 07:02:34;;;;;;;22.20;3.40;;;1.30;99.90;;;;;;4988417;28;20422;-29
2022/01/06 07:05:00;;;;;;;21.77;4.17;;;1.30;99.90;;;;;;4978112;28;20042;-29
2022/01/06 07:07:26;;;;;;;27.13;4.60;;;1.20;99.90;;;;;;4960887;28;20136;-29
2022/01/06 07:09:52;;;;;;;25.07;4.73;;;1.30;99.90;;;;;;4988770;28;20045;-29
2022/01/06 07:12:18;;;;;;;24.70;4.67;;;1.20;99.90;;;;;;4988213;28;20042;-29
2022/01/06 07:14:44;;;;;;;22.93;4.03;;;1.30;99.90;;;;;;4989177;28;20076;-29
2022/01/06 07:17:09;;;;;;;30.33;4.67;;;1.20;99.90;;;;;;4972495;28;20100;-29
2022/01/06 07:19:36;;;;;;;24.97;4.73;;;1.30;99.90;;;;;;4988834;28;20046;-29
2022/01/06 07:22:02;;;;;;;24.07;4.40;;;1.20;99.90;;;;;;4971038;28;20362;-29
2022/01/06 07:24:28;;;;;;;29.17;4.70;;;1.20;99.90;;;;;;4984860;28;20125;-29
2022/01/06 07:26:54;;;;;;;26.80;5.20;;;1.30;99.90;;;;;;4961136;28;20058;-29
2022/01/06 07:29:19;;;;;;;26.97;4.70;;;1.30;99.90;;;;;;4970614;28;20414;-29
2022/01/06 07:31:45;;;;;;;26.57;4.20;;;1.30;99.90;;;;;;4973493;28;20117;-29
2022/01/06 07:34:11;;;;;;;29.67;4.73;;;1.30;99.90;;;;;;4965621;28;20078;-30
2022/01/06 07:36:37;;;;;;;28.00;4.63;;;1.30;99.90;;;;;;4952971;28;20109;-29
2022/01/06 07:39:03;;;;;;;27.90;5.00;;;1.20;99.90;;;;;;4961554;28;20054;-29
2022/01/06 07:41:28;;;;;;;22.33;4.63;;;1.30;99.90;;;;;;4966748;28;20399;-29
2022/01/06 07:43:54;;;;;;;28.67;4.60;;;1.30;99.90;;;;;;4964653;28;20462;-29
2022/01/06 07:46:20;;;;;;;27.53;4.57;;;1.30;99.90;;;;;;4953079;28;20057;-29
2022/01/06 07:48:56;;;;;;;21.77;4.80;;;1.30;99.90;;;;;;4960767;28;20042;-29
2022/01/06 07:51:27;;;;;;;25.37;4.47;;;1.30;99.90;;;;;;4965856;28;20474;-29
2022/01/06 07:53:53;;;;;;;29.27;4.73;;;1.30;99.90;;;;;;4968794;28;20052;-29
2022/01/06 07:56:19;;;;;;;23.73;4.93;;;1.30;99.90;;;;;;4955070;28;20046;-29
2022/01/06 07:58:45;;;;;;;25.60;4.80;;;1.40;99.90;;;;;;4960913;28;20067;-29
2022/01/06 08:01:11;;;;;;;25.63;4.93;;;1.40;99.90;;;;;;4955375;28;20593;-29
2022/01/06 08:03:38;;;;;;;25.17;4.47;;;1.30;99.90;;;;;;4969175;28;20089;-29
2022/01/06 08:06:03;;;;;;;31.33;5.10;;;1.40;99.90;;;;;;4969102;28;20058;-29
2022/01/06 08:08:29;;;;;;;29.43;7.40;;;1.40;99.90;;;;;;4965016;28;20051;-29
2022/01/06 08:10:55;;;;;;;43.03;15.33;;;1.40;99.90;;;;;;4987094;28;20042;-29
2022/01/06 08:13:20;;;;;;;45.00;15.07;;;1.40;99.90;;;;;;4987988;28;20054;-29
2022/01/06 08:15:46;;;;;;;31.90;7.47;;;1.40;99.90;;;;;;4988658;28;20049;-29
2022/01/06 08:18:11;;;;;;;25.73;5.53;;;1.40;99.90;;;;;;4969933;28;20050;-29
2022/01/06 08:20:38;;;;;;;28.67;5.63;;;1.40;99.90;;;;;;4989303;28;20054;-29
2022/01/06 08:23:05;;;;;;;31.03;5.67;;;1.40;99.90;;;;;;4988890;28;20050;-29
2022/01/06 08:25:30;;;;;;;26.60;5.27;;;1.40;99.90;;;;;;4989369;28;20055;-28
2022/01/06 08:27:56;;;;;;;30.53;5.30;;;1.40;99.90;;;;;;4973310;28;20058;-29
2022/01/06 08:30:22;;;;;;;29.07;5.80;;;1.40;99.90;;;;;;4988503;28;20042;-29
2022/01/06 08:32:48;;;;;;;29.77;5.70;;;1.40;99.90;;;;;;4967195;28;20046;-29
2022/01/06 08:35:14;;;;;;;27.03;5.47;;;1.40;99.90;;;;;;4984468;28;20042;-29
2022/01/06 08:37:40;;;;;;;25.70;4.90;;;1.50;99.90;;;;;;4969186;28;20056;-29
2022/01/06 08:40:07;;;;;;;30.90;5.27;;;1.40;99.90;;;;;;4987925;28;20391;-29
2022/01/06 08:42:33;;;;;;;27.50;4.83;;;1.40;99.90;;;;;;4986232;28;20093;-29
2022/01/06 08:44:59;;;;;;;29.47;4.90;;;1.40;99.90;;;;;;4970701;28;20137;-29
2022/01/06 08:47:24;;;;;;;27.10;5.03;;;1.40;99.90;;;;;;4972550;28;20517;-30
2022/01/06 08:49:50;;;;;;;23.33;5.60;;;1.40;99.90;;;;;;4988816;28;20125;-29
2022/01/06 08:52:16;;;;;;;33.97;6.40;;;1.40;99.90;;;;;;4988065;28;20119;-29
2022/01/06 08:54:42;;;;;;;26.97;4.80;;;1.40;99.90;;;;;;4988826;28;20489;-29
2022/01/06 08:57:07;;;;;;;20.00;4.40;;;1.40;99.90;;;;;;4972868;28;20038;-29
2022/01/06 08:59:33;;;;;;;25.87;4.53;;;1.40;99.90;;;;;;4971066;28;20061;-29
2022/01/06 09:01:59;;;;;;;28.53;5.00;;;1.40;99.90;;;;;;4988653;28;20057;-29
2022/01/06 09:04:25;;;;;;;26.53;5.03;;;1.50;99.90;;;;;;4981398;28;20498;-29
2022/01/06 09:06:51;;;;;;;31.70;5.00;;;1.50;99.90;;;;;;4957309;28;20413;-29
2022/01/06 09:09:18;;;;;;;28.47;5.07;;;1.50;99.90;;;;;;4987482;28;20073;-29
2022/01/06 09:11:44;;;;;;;20.70;5.10;;;1.50;99.90;;;;;;4987977;28;20493;-29
2022/01/06 09:14:10;;;;;;;19.77;4.23;;;1.60;99.90;;;;;;4987364;28;20050;-29
2022/01/06 09:16:37;;;;;;;21.87;4.70;;;1.60;99.90;;;;;;4974117;28;20507;-30
2022/01/06 09:19:04;;;;;;;22.13;4.37;;;1.60;99.90;;;;;;4968400;28;20125;-29
2022/01/06 09:21:29;;;;;;;26.77;4.40;;;1.60;99.90;;;;;;4988631;28;20050;-29
2022/01/06 09:23:57;;;;;;;23.53;4.40;;;1.60;99.90;;;;;;4986860;28;20108;-29
2022/01/06 09:26:23;;;;;;;29.77;6.03;;;1.60;99.90;;;;;;4975733;28;20429;-29
2022/01/06 09:28:48;;;;;;;28.97;6.23;;;1.70;99.90;;;;;;4966640;28;20042;-29
2022/01/06 09:31:14;;;;;;;28.53;4.67;;;1.70;99.90;;;;;;4987987;28;20136;-29
2022/01/06 09:33:40;;;;;;;28.60;4.70;;;1.70;99.90;;;;;;4987664;28;20248;-29
2022/01/06 09:36:06;;;;;;;31.03;5.50;;;1.80;99.90;;;;;;4968378;28;20683;-30
2022/01/06 09:38:32;;;;;;;22.97;4.50;;;1.80;99.90;;;;;;4976670;28;20109;-29
2022/01/06 09:41:03;;;;;;;25.53;4.47;;;1.80;99.90;;;;;;4988480;28;20034;-30
2022/01/06 09:43:34;;;;;;;29.85;4.50;;;1.90;99.90;;;;;;4987410;28;20061;-29
2022/01/06 09:46:08;;;;;;;22.87;4.23;;;1.90;99.90;;;;;;4970448;28;20073;-29
2022/01/06 09:48:37;;;;;;;22.00;4.23;;;2.00;99.90;;;;;;4978080;28;20116;-29
2022/01/06 09:51:03;;;;;;;25.33;4.57;;;2.00;99.90;;;;;;4969647;28;20120;-29
2022/01/06 09:53:29;;;;;;;23.47;4.40;;;2.00;99.90;;;;;;4987567;28;20058;-29
2022/01/06 09:55:55;;;;;;;21.67;4.20;;;2.00;99.90;;;;;;4987589;28;20113;-29
2022/01/06 09:58:24;;;;;;;23.03;4.33;;;2.10;99.90;;;;;;4971624;28;20125;-29
2022/01/06 10:00:51;;;;;;;22.67;4.73;;;2.20;99.90;;;;;;4966527;28;20075;-29
2022/01/06 10:03:16;;;;;;;23.73;5.20;;;2.30;99.90;;;;;;4975059;28;20570;-29
2022/01/06 10:05:49;;;;;;;22.93;5.07;;;2.40;99.90;;;;;;4969318;28;20078;-29
2022/01/06 10:08:27;;;;;;;26.37;4.73;;;2.50;99.90;;;;;;4961320;28;20038;-29
2022/01/06 10:11:11;;;;;;;31.20;5.00;;;2.70;99.90;;;;;;4960202;28;20038;-30
2022/01/06 10:13:37;;;;;;;19.77;4.00;;;2.80;99.90;;;;;;4987573;28;20485;-30
2022/01/06 10:16:17;;;;;;;33.83;4.93;;;2.90;99.90;;;;;;4987346;28;20053;-29
2022/01/06 10:18:58;;;;;;;23.43;6.27;;;3.00;99.90;;;;;;4967587;28;20060;-29
2022/01/06 10:21:25;;;;;;;25.33;5.88;;;3.10;99.90;;;;;;4947472;28;21110;-29
2022/01/06 10:24:06;;;;;;;25.57;5.47;;;3.30;99.90;;;;;;4987623;28;20042;-30
2022/01/06 10:26:33;;;;;;;25.85;5.80;;;3.40;99.90;;;;;;4955492;28;20049;-29
2022/01/06 10:28:59;;;;;;;24.60;4.60;;;3.50;99.90;;;;;;4962719;28;20054;-30
2022/01/06 10:31:27;;;;;;;26.37;4.67;;;3.70;99.90;;;;;;4987092;28;20074;-30
2022/01/06 10:33:54;;;;;;;28.13;4.50;;;3.90;99.90;;;;;;4987480;28;20053;-30
2022/01/06 10:36:27;;;;;;;20.90;4.27;;;4.00;99.90;;;;;;4976918;28;20074;-30
2022/01/06 10:38:55;;;;;;;22.70;4.13;;;4.20;99.90;;;;;;4965482;28;21261;-29
2022/01/06 10:41:21;;;;;;;25.10;4.77;;;4.40;99.90;;;;;;4954785;28;20153;-30
2022/01/06 10:43:51;;;;;;;24.87;4.73;;;4.50;99.90;;;;;;4979685;28;20305;-30
2022/01/06 10:46:42;;;;;;;15.33;3.77;;;4.70;99.90;;;;;;4968536;28;20062;-30
2022/01/06 10:49:14;;;;;;;24.07;4.40;;;4.90;99.90;;;;;;4948191;28;20197;-30
2022/01/06 10:51:41;;;;;;;21.73;4.33;;;5.10;99.90;;;;;;4962262;28;20395;-30
2022/01/06 10:54:24;;;;;;;24.63;5.10;;;5.20;99.90;;;;;;4962143;28;20054;-31
2022/01/06 10:57:05;;;;;;;17.20;4.60;;;5.40;99.90;;;;;;4914613;28;20538;-30
2022/01/06 10:59:33;;;;;;;22.37;4.57;;;5.60;99.90;;;;;;4955496;28;20574;-30
2022/01/06 11:02:00;;;;;;;22.73;4.43;;;5.70;99.90;;;;;;4983350;28;20038;-30
2022/01/06 11:04:26;;;;;;;22.53;4.93;;;5.80;99.90;;;;;;4964145;28;20042;-30
2022/01/06 11:06:52;;;;;;;20.40;4.03;;;5.90;99.90;;;;;;4967070;28;20486;-30
2022/01/06 11:09:18;;;;;;;16.20;4.10;;;5.90;99.90;;;;;;4978840;28;20042;-30
2022/01/06 11:12:26;;;;;;;18.70;4.27;;;5.90;99.90;;;;;;4975728;28;20117;-30
2022/01/06 11:14:32;;;;;;;24.30;4.40;;;6.00;99.90;;;;;;4984403;28;20053;-30
2022/01/06 11:16:57;;;;;;;17.57;4.07;;;6.10;99.90;;;;;;4963215;28;20525;-30
2022/01/06 11:19:24;;;;;;;23.33;4.43;;;6.00;99.90;;;;;;4978877;28;20042;-30
2022/01/06 11:21:51;;;;;;;23.57;4.50;;;6.10;99.90;;;;;;4960083;28;20070;-30
2022/01/06 11:24:27;;;;;;;22.27;4.37;;;6.00;99.90;;;;;;4978959;28;20373;-30
2022/01/06 11:27:03;;;;;;;18.13;4.03;;;6.10;99.90;;;;;;4963662;28;20454;-30
2022/01/06 11:29:34;;;;;;;20.30;4.63;;;6.10;99.90;;;;;;4976913;28;20101;-30
2022/01/06 11:32:05;;;;;;;20.20;4.28;;;6.20;99.90;;;;;;4962545;28;20049;-30
2022/01/06 11:34:38;;;;;;;23.63;5.13;;;6.20;99.90;;;;;;4978693;28;20841;-30
2022/01/06 11:37:12;;;;;;;23.73;5.07;;;6.20;99.90;;;;;;4962479;28;20053;-30
2022/01/06 11:39:39;;;;;;;20.67;3.90;;;6.20;99.90;;;;;;4941847;28;20410;-30
2022/01/06 11:42:15;;;;;;;14.23;3.90;;;6.20;99.90;;;;;;4979483;28;20117;-31
2022/01/06 11:44:55;;;;;;;17.67;3.90;;;6.30;99.90;;;;;;4983023;28;20129;-29
2022/01/06 11:47:39;;;;;;;19.73;4.07;;;6.20;99.90;;;;;;4962372;28;20038;-30
2022/01/06 11:50:11;;;;;;;19.57;4.60;;;6.30;99.90;;;;;;4949057;28;20557;-30
2022/01/06 11:52:48;;;;;;;20.83;4.30;;;6.20;99.90;;;;;;4951853;28;20145;-30
2022/01/06 11:55:14;;;;;;;23.60;4.33;;;6.30;99.90;;;;;;4958589;28;20043;-30
2022/01/06 11:57:40;;;;;;;23.27;4.57;;;6.40;99.90;;;;;;4940766;28;20046;-30
2022/01/06 12:00:29;;;;;;;22.00;4.43;;;6.50;99.90;;;;;;4957670;28;20074;-30
2022/01/06 12:03:10;;;;;;;19.37;4.37;;;6.60;99.90;;;;;;4961552;28;20626;-29
2022/01/06 12:05:53;;;;;;;19.00;3.77;;;6.70;99.90;;;;;;4956861;28;20047;-30
2022/01/06 12:08:21;;;;;;;23.13;4.27;;;6.70;99.90;;;;;;4937328;28;20515;-30
2022/01/06 12:10:49;;;;;;;16.53;3.67;;;6.70;99.90;;;;;;4937148;28;20134;-30
2022/01/06 12:13:16;;;;;;;20.67;4.50;;;6.70;99.90;;;;;;4953814;28;20046;-30
2022/01/06 12:16:01;;;;;;;17.53;3.73;;;6.60;99.90;;;;;;4956930;28;20676;-30
2022/01/06 12:18:29;;;;;;;19.00;3.87;;;6.50;99.90;;;;;;4908837;28;20050;-30
2022/01/06 12:20:58;;;;;;;20.03;3.60;;;6.50;99.90;;;;;;4939309;28;20069;-30
2022/01/06 12:23:24;;;;;;;20.43;3.50;;;6.50;99.90;;;;;;4955716;28;20043;-30
2022/01/06 12:26:03;;;;;;;20.00;3.17;;;6.50;99.90;;;;;;4958462;28;20593;-30
2022/01/06 12:28:31;;;;;;;17.40;3.43;;;6.50;99.90;;;;;;4940981;28;20046;-30
2022/01/06 12:31:05;;;;;;;17.27;3.07;;;6.50;99.90;;;;;;4974280;28;20046;-30
2022/01/06 12:33:41;;;;;;;16.87;3.30;;;6.50;99.90;;;;;;4941108;28;20818;-30
2022/01/06 12:36:07;;;;;;;17.77;3.13;;;6.50;99.90;;;;;;4950649;28;20051;-30
2022/01/06 12:38:36;;;;;;;15.57;2.90;;;6.50;99.90;;;;;;4939414;28;20050;-30
2022/01/06 12:41:03;;;;;;;18.57;3.77;;;6.40;99.90;;;;;;4964325;28;20122;-30
2022/01/06 12:43:31;;;;;;;17.70;3.23;;;6.30;99.90;;;;;;4938644;28;20043;-30
2022/01/06 12:46:12;;;;;;;17.93;3.53;;;6.40;99.90;;;;;;4957263;28;20093;-30
2022/01/06 12:48:42;;;;;;;14.60;3.00;;;6.40;99.90;;;;;;4951999;28;21314;-30
2022/01/06 12:51:11;;;;;;;17.50;3.23;;;6.40;99.90;;;;;;4951287;28;20077;-30
2022/01/06 12:53:42;;;;;;;15.37;3.23;;;6.30;99.90;;;;;;4964727;28;20453;-30